createdAt,value
2019-06-01T00:01:16.185Z,89.10
2019-06-01T00:03:46.473Z,89.13
2019-06-01T00:06:16.232Z,89.55
2019-06-01T00:08:47.127Z,89.23
2019-06-01T00:11:17.087Z,88.55
2019-06-01T00:13:47.683Z,88.79
2019-06-01T00:16:17.482Z,88.48
2019-06-01T00:18:48.340Z,87.93
2019-06-01T00:21:17.935Z,88.23
2019-06-01T00:23:48.708Z,87.99
2019-06-01T00:26:18.304Z,87.57
2019-06-01T00:28:47.961Z,87.66
2019-06-01T00:31:17.719Z,87.58
2019-06-01T00:33:47.708Z,88.07
2019-06-01T00:36:17.126Z,86.69
2019-06-01T00:38:47.837Z,87.04
2019-06-01T00:41:17.370Z,87.12
2019-06-01T00:43:48.457Z,87.21
2019-06-01T00:46:18.452Z,86.66
2019-06-01T00:48:47.960Z,86.08
2019-06-01T00:51:17.537Z,85.99
2019-06-01T00:53:47.346Z,86.71
2019-06-01T00:56:17.162Z,87.37
2019-06-01T00:58:47.847Z,86.70
2019-06-01T01:01:17.448Z,86.03
2019-06-01T01:03:48.126Z,85.25
2019-06-01T01:06:18.031Z,85.46
2019-06-01T01:08:48.897Z,84.23
2019-06-01T01:11:18.660Z,84.71
2019-06-01T01:13:49.233Z,84.07
2019-06-01T01:16:18.857Z,84.43
2019-06-01T01:18:49.653Z,84.93
2019-06-01T01:21:19.172Z,85.21
2019-06-01T01:23:48.792Z,84.29
2019-06-01T01:26:18.484Z,83.34
2019-06-01T01:28:48.788Z,83.34
2019-06-01T01:31:18.506Z,82.99
2019-06-01T01:33:49.358Z,83.23
2019-06-01T01:36:19.087Z,83.51
2019-06-01T01:38:50.358Z,82.43
2019-06-01T01:41:20.115Z,82.53
2019-06-01T01:43:50.393Z,82.68
2019-06-01T01:46:20.097Z,82.14
2019-06-01T01:48:49.908Z,82.62
2019-06-01T01:51:19.658Z,82.49
2019-06-01T01:53:50.500Z,81.64
2019-06-01T01:56:19.983Z,82.25
2019-06-01T01:58:50.314Z,83.02
2019-06-01T02:01:22.638Z,81.60
2019-06-01T02:03:52.203Z,81.60
2019-06-01T02:06:22.927Z,81.30
2019-06-01T02:08:53.528Z,81.78
2019-06-01T02:11:23.129Z,82.91
2019-06-01T02:13:53.628Z,81.79
2019-06-01T02:16:23.417Z,80.85
2019-06-01T02:18:54.321Z,80.44
2019-06-01T02:21:24.164Z,81.44
2019-06-01T02:23:54.843Z,80.85
2019-06-01T02:26:24.526Z,80.39
2019-06-01T02:28:55.314Z,81.17
2019-06-01T02:31:39.927Z,81.27
2019-06-01T02:33:56.985Z,81.53
2019-06-01T02:36:27.735Z,81.44
2019-06-01T02:38:58.554Z,80.75
2019-06-01T02:41:28.132Z,80.57
2019-06-01T02:43:59.037Z,81.08
2019-06-01T02:46:28.814Z,81.45
2019-06-01T02:48:59.770Z,81.27
2019-06-01T02:51:29.771Z,81.67
2019-06-01T02:53:59.643Z,81.42
2019-06-01T02:56:29.144Z,81.40
2019-06-01T02:59:00.270Z,81.28
2019-06-01T03:01:38.327Z,81.26
2019-06-01T03:04:09.602Z,80.83
2019-06-01T03:06:42.430Z,81.49
2019-06-01T03:09:12.972Z,81.83
2019-06-01T03:11:44.320Z,80.56
2019-06-01T03:14:13.955Z,80.31
2019-06-01T03:16:43.747Z,79.64
2019-06-01T03:19:17.439Z,79.86
2019-06-01T03:21:50.609Z,80.69
2019-06-01T03:24:24.913Z,80.25
2019-06-01T03:26:55.881Z,80.54
2019-06-01T03:29:28.163Z,80.46
2019-06-01T03:32:17.659Z,79.87
2019-06-01T03:34:29.037Z,79.79
2019-06-01T03:36:58.810Z,79.56
2019-06-01T03:39:29.281Z,79.15
2019-06-01T03:41:59.285Z,78.83
2019-06-01T03:44:28.879Z,79.31
2019-06-01T03:46:58.594Z,77.86
2019-06-01T03:49:28.332Z,78.36
2019-06-01T03:51:57.951Z,77.66
2019-06-01T03:54:27.822Z,78.60
2019-06-01T03:56:57.542Z,78.83
2019-06-01T03:59:27.302Z,78.48
2019-06-01T04:01:57.238Z,78.98
2019-06-01T04:04:26.834Z,77.85
2019-06-01T04:06:56.383Z,77.97
2019-06-01T04:09:26.074Z,78.17
2019-06-01T04:11:55.748Z,78.47
2019-06-01T04:14:25.571Z,76.84
2019-06-01T04:16:55.361Z,76.69
2019-06-01T04:19:25.009Z,77.76
2019-06-01T04:21:54.603Z,78.58
2019-06-01T04:24:24.455Z,78.35
2019-06-01T04:26:54.241Z,78.66
2019-06-01T04:29:23.950Z,77.91
2019-06-01T04:31:53.620Z,76.90
2019-06-01T04:34:23.249Z,77.62
2019-06-01T04:36:52.977Z,78.28
2019-06-01T04:39:22.578Z,78.41
2019-06-01T04:41:52.295Z,78.28
2019-06-01T04:44:21.924Z,77.84
2019-06-01T04:46:52.088Z,77.55
2019-06-01T04:49:21.482Z,76.07
2019-06-01T04:51:51.266Z,75.75
2019-06-01T04:54:20.842Z,76.74
2019-06-01T04:56:50.441Z,77.60
2019-06-01T04:59:20.224Z,76.32
2019-06-01T05:01:49.894Z,76.33
2019-06-01T05:04:19.459Z,76.76
2019-06-01T05:06:49.337Z,76.50
2019-06-01T05:09:18.852Z,76.62
2019-06-01T05:11:48.687Z,75.51
2019-06-01T05:14:18.402Z,75.65
2019-06-01T05:16:47.791Z,75.16
2019-06-01T05:19:17.519Z,73.80
2019-06-01T05:21:47.006Z,74.29
2019-06-01T05:24:17.109Z,74.15
2019-06-01T05:26:46.862Z,73.16
2019-06-01T05:29:17.819Z,74.38
2019-06-01T05:31:47.970Z,74.33
2019-06-01T05:34:18.405Z,72.95
2019-06-01T05:36:48.339Z,72.67
2019-06-01T05:39:18.810Z,71.55
2019-06-01T05:41:48.581Z,71.58
2019-06-01T05:44:19.210Z,70.86
2019-06-01T05:46:48.847Z,70.99
2019-06-01T05:49:18.616Z,70.07
2019-06-01T05:51:48.322Z,68.99
2019-06-01T05:54:18.870Z,70.26
2019-06-01T05:56:48.685Z,70.02
2019-06-01T05:59:18.345Z,69.21
2019-06-01T06:01:48.095Z,69.46
2019-06-01T06:04:17.760Z,68.18
2019-06-01T06:06:47.228Z,68.97
2019-06-01T06:09:17.168Z,68.15
2019-06-01T06:11:46.925Z,68.07
2019-06-01T06:14:17.576Z,68.71
2019-06-01T06:16:47.186Z,69.21
2019-06-01T06:19:19.233Z,68.10
2019-06-01T06:21:48.474Z,67.87
2019-06-01T06:24:18.617Z,68.71
2019-06-01T06:26:48.284Z,67.11
2019-06-01T06:29:18.928Z,67.07
2019-06-01T06:31:48.567Z,67.99
2019-06-01T06:34:19.588Z,68.05
2019-06-01T06:36:49.262Z,67.62
2019-06-01T06:39:20.040Z,68.26
2019-06-01T06:41:49.565Z,67.07
2019-06-01T06:44:20.515Z,66.07
2019-06-01T06:46:50.484Z,65.99
2019-06-01T06:49:21.315Z,66.19
2019-06-01T06:51:50.774Z,65.28
2019-06-01T06:54:21.860Z,65.40
2019-06-01T06:56:51.741Z,65.20
2019-06-01T06:59:22.386Z,65.41
2019-06-01T07:01:54.098Z,65.21
2019-06-01T07:04:23.886Z,64.54
2019-06-01T07:06:53.440Z,65.04
2019-06-01T07:09:23.964Z,63.53
2019-06-01T07:11:53.592Z,63.75
2019-06-01T07:14:23.561Z,65.34
2019-06-01T07:16:53.199Z,64.55
2019-06-01T07:19:23.767Z,62.88
2019-06-01T07:21:53.257Z,63.77
2019-06-01T07:24:23.787Z,62.79
2019-06-01T07:26:53.592Z,64.63
2019-06-01T07:29:24.175Z,63.06
2019-06-01T07:31:53.728Z,62.37
2019-06-01T07:34:33.302Z,63.62
2019-06-01T07:36:54.480Z,62.16
2019-06-01T07:39:24.840Z,62.64
2019-06-01T07:41:54.899Z,61.27
2019-06-01T07:44:24.987Z,61.54
2019-06-01T07:46:54.487Z,61.28
2019-06-01T07:49:25.013Z,60.70
2019-06-01T07:51:54.559Z,61.43
2019-06-01T07:54:24.857Z,60.38
2019-06-01T07:56:54.291Z,60.50
2019-06-01T07:59:24.579Z,60.71
2019-06-01T08:01:55.346Z,59.79
2019-06-01T08:04:26.684Z,60.63
2019-06-01T08:06:56.201Z,60.48
2019-06-01T08:09:26.524Z,60.83
2019-06-01T08:11:56.965Z,60.62
2019-06-01T08:14:26.546Z,59.61
2019-06-01T08:16:56.070Z,58.25
2019-06-01T08:19:26.022Z,58.90
2019-06-01T08:21:55.738Z,58.41
2019-06-01T08:24:26.225Z,59.50
2019-06-01T08:26:56.108Z,59.15
2019-06-01T08:29:26.621Z,58.81
2019-06-01T08:31:56.335Z,58.46
2019-06-01T08:34:26.927Z,58.52
2019-06-01T08:36:56.463Z,56.29
2019-06-01T08:39:27.239Z,57.80
2019-06-01T08:41:56.913Z,57.30
2019-06-01T08:44:27.724Z,57.56
2019-06-01T08:46:57.689Z,58.69
2019-06-01T08:49:28.005Z,57.70
2019-06-01T08:51:57.791Z,57.57
2019-06-01T08:54:28.138Z,56.43
2019-06-01T08:56:58.237Z,54.88
2019-06-01T08:59:28.409Z,54.43
2019-06-01T09:01:57.974Z,55.32
2019-06-01T09:04:28.722Z,54.21
2019-06-01T09:06:58.271Z,54.08
2019-06-01T09:09:28.882Z,54.38
2019-06-01T09:11:58.367Z,53.90
2019-06-01T09:14:29.098Z,53.57
2019-06-01T09:16:58.722Z,55.93
2019-06-01T09:19:29.414Z,55.65
2019-06-01T09:21:59.002Z,52.51
2019-06-01T09:24:29.759Z,54.20
2019-06-01T09:26:59.269Z,54.07
2019-06-01T09:29:29.862Z,54.42
2019-06-01T09:31:59.539Z,51.37
2019-06-01T09:34:30.343Z,53.80
2019-06-01T09:37:00.002Z,53.52
2019-06-01T09:39:30.964Z,52.44
2019-06-01T09:42:00.775Z,51.32
2019-06-01T09:44:31.967Z,49.77
2019-06-01T09:47:01.499Z,48.49
2019-06-01T09:49:32.646Z,48.19
2019-06-01T09:52:02.940Z,45.07
2019-06-01T09:54:34.438Z,45.83
2019-06-01T09:57:04.213Z,41.38
2019-06-01T09:59:34.138Z,41.38
2019-06-01T10:02:04.197Z,38.60
2019-06-01T10:04:34.426Z,34.85
2019-06-01T10:07:04.216Z,34.38
2019-06-01T10:09:34.017Z,30.58
2019-06-01T10:12:03.425Z,31.51
2019-06-01T10:14:33.964Z,30.32
2019-06-01T10:17:03.980Z,27.65
2019-06-01T10:19:34.650Z,29.40
2019-06-01T10:22:04.139Z,31.00
2019-06-01T10:24:34.884Z,30.69
2019-06-01T10:27:05.069Z,30.74
2019-06-01T10:29:34.746Z,33.05
2019-06-01T10:32:04.318Z,33.82
2019-06-01T10:34:34.094Z,32.01
2019-06-01T10:37:03.796Z,30.78
2019-06-01T10:39:33.292Z,26.77
2019-06-01T10:42:02.695Z,29.76
2019-06-01T10:44:36.731Z,29.56
2019-06-01T10:47:03.957Z,29.49
2019-06-01T10:49:33.843Z,29.14
2019-06-01T10:52:03.515Z,29.95
2019-06-01T10:54:34.305Z,30.77
2019-06-01T10:57:03.739Z,31.10
2019-06-01T10:59:34.252Z,30.46
2019-06-01T11:02:03.871Z,30.87
2019-06-01T11:04:34.871Z,31.24
2019-06-01T11:07:04.625Z,34.73
2019-06-01T11:09:34.849Z,34.48
2019-06-01T11:12:04.500Z,33.04
2019-06-01T11:14:34.857Z,29.68
2019-06-01T11:17:04.256Z,29.43
2019-06-01T11:19:35.226Z,29.30
2019-06-01T11:22:05.030Z,27.58
2019-06-01T11:24:35.307Z,26.93
2019-06-01T11:27:04.728Z,26.01
2019-06-01T11:29:38.839Z,28.70
2019-06-01T11:32:05.806Z,31.72
2019-06-01T11:34:36.412Z,34.17
2019-06-01T11:37:06.158Z,33.49
2019-06-01T11:39:36.350Z,33.31
2019-06-01T11:42:05.971Z,34.22
2019-06-01T11:44:36.516Z,34.75
2019-06-01T11:47:06.016Z,36.30
2019-06-01T11:49:36.630Z,36.58
2019-06-01T11:52:06.423Z,37.32
2019-06-01T11:54:36.953Z,37.56
2019-06-01T11:57:06.493Z,40.25
2019-06-01T11:59:37.102Z,40.35
2019-06-01T12:02:06.747Z,41.03
2019-06-01T12:04:36.213Z,41.27
2019-06-01T12:07:17.178Z,42.55
2019-06-01T12:09:37.753Z,41.61
2019-06-01T12:12:07.246Z,41.49
2019-06-01T12:14:38.396Z,38.65
2019-06-01T12:17:08.143Z,33.25
2019-06-01T12:19:38.552Z,32.73
2019-06-01T12:22:08.036Z,33.61
2019-06-01T12:24:38.827Z,32.91
2019-06-01T12:27:08.510Z,32.52
2019-06-01T12:29:39.407Z,33.41
2019-06-01T12:32:08.952Z,34.46
2019-06-01T12:34:39.944Z,34.57
2019-06-01T12:37:09.613Z,36.42
2019-06-01T12:39:40.341Z,37.60
2019-06-01T12:42:09.983Z,38.12
2019-06-01T12:44:39.864Z,39.82
2019-06-01T12:47:09.361Z,42.10
2019-06-01T12:49:40.089Z,42.67
2019-06-01T12:52:10.025Z,42.62
2019-06-01T12:54:40.367Z,41.93
2019-06-01T12:57:09.906Z,41.20
2019-06-01T12:59:40.993Z,42.30
2019-06-01T13:02:11.344Z,42.94
2019-06-01T13:04:42.641Z,43.12
2019-06-01T13:07:12.287Z,44.02
2019-06-01T13:09:42.252Z,44.61
2019-06-01T13:12:11.780Z,44.18
2019-06-01T13:14:41.197Z,45.41
2019-06-01T13:17:10.906Z,44.26
2019-06-01T13:19:41.310Z,44.42
2019-06-01T13:22:11.028Z,44.27
2019-06-01T13:24:41.550Z,44.05
2019-06-01T13:27:10.983Z,43.49
2019-06-01T13:29:41.701Z,44.70
2019-06-01T13:32:11.352Z,43.92
2019-06-01T13:34:42.514Z,44.63
2019-06-01T13:37:12.188Z,43.80
2019-06-01T13:39:42.972Z,44.19
2019-06-01T13:42:12.439Z,42.94
2019-06-01T13:44:43.359Z,42.98
2019-06-01T13:47:13.140Z,42.07
2019-06-01T13:49:44.524Z,42.85
2019-06-01T13:52:14.255Z,43.00
2019-06-01T13:54:44.168Z,43.30
2019-06-01T13:57:13.578Z,41.70
2019-06-01T13:59:44.446Z,43.93
2019-06-01T14:02:14.399Z,43.96
2019-06-01T14:04:45.090Z,45.23
2019-06-01T14:07:14.676Z,46.98
2019-06-01T14:09:45.252Z,47.54
2019-06-01T14:12:14.647Z,47.84
2019-06-01T14:14:45.332Z,46.69
2019-06-01T14:17:14.852Z,45.77
2019-06-01T14:19:45.616Z,46.46
2019-06-01T14:22:15.166Z,46.65
2019-06-01T14:24:47.861Z,45.90
2019-06-01T14:27:16.232Z,45.65
2019-06-01T14:29:46.405Z,43.15
2019-06-01T14:32:16.209Z,44.55
2019-06-01T14:34:46.306Z,43.92
2019-06-01T14:37:15.958Z,43.21
2019-06-01T14:39:46.646Z,41.24
2019-06-01T14:42:16.178Z,41.82
2019-06-01T14:44:47.064Z,42.92
2019-06-01T14:47:18.764Z,43.45
2019-06-01T14:49:49.398Z,44.43
2019-06-01T14:52:19.366Z,45.61
2019-06-01T14:54:49.628Z,45.33
2019-06-01T14:57:19.302Z,47.84
2019-06-01T14:59:50.387Z,47.77
2019-06-01T15:02:20.377Z,47.94
2019-06-01T15:04:50.104Z,48.59
2019-06-01T15:07:19.764Z,50.45
2019-06-01T15:09:50.082Z,50.83
2019-06-01T15:12:19.785Z,51.22
2019-06-01T15:14:50.796Z,52.63
2019-06-01T15:17:20.417Z,53.58
2019-06-01T15:19:50.202Z,54.39
2019-06-01T15:22:19.966Z,51.10
2019-06-01T15:24:50.318Z,52.53
2019-06-01T15:27:19.884Z,52.67
2019-06-01T15:29:50.623Z,50.88
2019-06-01T15:32:20.496Z,51.47
2019-06-01T15:34:50.354Z,49.51
2019-06-01T15:37:19.907Z,49.04
2019-06-01T15:39:50.539Z,51.16
2019-06-01T15:42:19.962Z,50.71
2019-06-01T15:44:50.944Z,51.37
2019-06-01T15:47:20.463Z,52.73
2019-06-01T15:49:50.026Z,55.10
2019-06-01T15:52:19.841Z,54.72
2019-06-01T15:54:49.604Z,55.65
2019-06-01T15:57:19.290Z,56.00
2019-06-01T15:59:48.705Z,55.14
2019-06-01T16:02:18.152Z,55.92
2019-06-01T16:04:47.991Z,55.86
2019-06-01T16:07:17.692Z,55.97
2019-06-01T16:09:47.352Z,55.56
2019-06-01T16:12:17.161Z,55.02
2019-06-01T16:14:46.708Z,55.64
2019-06-01T16:17:16.427Z,55.45
2019-06-01T16:19:45.914Z,55.39
2019-06-01T16:22:15.329Z,54.61
2019-06-01T16:24:44.733Z,54.79
2019-06-01T16:27:14.395Z,55.38
2019-06-01T16:29:44.112Z,55.08
2019-06-01T16:32:13.845Z,55.14
2019-06-01T16:34:43.450Z,56.52
2019-06-01T16:37:12.998Z,58.76
2019-06-01T16:39:58.304Z,58.27
2019-06-01T16:42:14.134Z,58.86
2019-06-01T16:44:43.723Z,59.68
2019-06-01T16:47:13.411Z,60.25
2019-06-01T16:49:43.156Z,60.77
2019-06-01T16:52:12.915Z,61.10
2019-06-01T16:54:42.459Z,61.48
2019-06-01T16:57:12.078Z,61.46
2019-06-01T16:59:41.782Z,61.38
2019-06-01T17:02:11.378Z,61.93
2019-06-01T17:04:41.058Z,62.24
2019-06-01T17:07:10.488Z,62.12
2019-06-01T17:09:39.938Z,63.14
2019-06-01T17:12:09.624Z,63.25
2019-06-01T17:14:39.106Z,61.41
2019-06-01T17:17:08.844Z,63.04
2019-06-01T17:19:38.422Z,63.56
2019-06-01T17:22:07.873Z,63.95
2019-06-01T17:24:37.661Z,64.66
2019-06-01T17:27:08.169Z,65.19
2019-06-01T17:29:38.042Z,65.41
2019-06-01T17:32:20.244Z,66.81
2019-06-01T17:34:38.869Z,65.89
2019-06-01T17:37:08.975Z,67.37
2019-06-01T17:39:38.703Z,67.06
2019-06-01T17:42:08.660Z,66.80
2019-06-01T17:44:38.144Z,67.59
2019-06-01T17:47:08.110Z,67.91
2019-06-01T17:49:37.927Z,68.23
2019-06-01T17:52:07.927Z,69.00
2019-06-01T17:54:37.415Z,69.09
2019-06-01T17:57:07.332Z,69.23
2019-06-01T17:59:37.200Z,66.84
2019-06-01T18:02:07.866Z,66.87
2019-06-01T18:04:37.386Z,67.46
2019-06-01T18:07:07.952Z,67.58
2019-06-01T18:09:37.438Z,68.14
2019-06-01T18:12:08.063Z,68.48
2019-06-01T18:14:37.791Z,68.76
2019-06-01T18:17:08.262Z,69.83
2019-06-01T18:19:37.985Z,71.17
2019-06-01T18:22:08.740Z,72.00
2019-06-01T18:24:38.468Z,71.57
2019-06-01T18:27:08.602Z,71.52
2019-06-01T18:29:41.077Z,70.65
2019-06-01T18:32:11.592Z,70.74
2019-06-01T18:34:41.301Z,72.33
2019-06-01T18:37:11.538Z,74.03
2019-06-01T18:39:41.284Z,74.84
2019-06-01T18:42:12.351Z,75.11
2019-06-01T18:44:42.195Z,75.64
2019-06-01T18:47:11.944Z,75.97
2019-06-01T18:49:42.148Z,76.31
2019-06-01T18:52:12.698Z,76.46
2019-06-01T18:54:42.250Z,76.59
2019-06-01T18:57:19.221Z,77.09
2019-06-01T18:59:42.975Z,77.70
2019-06-01T19:02:12.765Z,77.50
2019-06-01T19:04:42.478Z,77.98
2019-06-01T19:07:13.282Z,78.33
2019-06-01T19:09:43.368Z,78.10
2019-06-01T19:12:13.485Z,77.83
2019-06-01T19:14:43.252Z,77.68
2019-06-01T19:17:16.446Z,77.54
2019-06-01T19:19:46.272Z,77.74
2019-06-01T19:22:16.718Z,78.06
2019-06-01T19:24:46.294Z,78.78
2019-06-01T19:27:17.072Z,79.20
2019-06-01T19:29:47.115Z,79.51
2019-06-01T19:32:21.009Z,79.39
2019-06-01T19:34:49.219Z,79.07
2019-06-01T19:37:19.611Z,77.00
2019-06-01T19:39:49.193Z,76.80
2019-06-01T19:42:18.635Z,75.84
2019-06-01T19:44:48.302Z,75.29
2019-06-01T19:47:19.115Z,74.75
2019-06-01T19:49:48.698Z,74.00
2019-06-01T19:52:19.028Z,74.27
2019-06-01T19:54:48.630Z,74.32
2019-06-01T19:57:22.034Z,73.15
2019-06-01T19:59:50.050Z,73.48
2019-06-01T20:02:28.521Z,75.14
2019-06-01T20:04:51.064Z,75.82
2019-06-01T20:07:21.378Z,76.44
2019-06-01T20:09:51.490Z,77.06
2019-06-01T20:12:22.464Z,77.17
2019-06-01T20:14:52.173Z,77.51
2019-06-01T20:17:25.874Z,77.59
2019-06-01T20:19:53.359Z,77.75
2019-06-01T20:22:23.089Z,77.84
2019-06-01T20:24:52.998Z,78.04
2019-06-01T20:27:22.428Z,77.80
2019-06-01T20:29:51.828Z,76.80
2019-06-01T20:32:22.218Z,75.96
2019-06-01T20:34:52.138Z,76.33
2019-06-01T20:37:22.233Z,76.88
2019-06-01T20:39:53.259Z,77.41
2019-06-01T20:42:32.099Z,77.15
2019-06-01T20:44:54.245Z,76.68
2019-06-01T20:47:23.991Z,77.05
2019-06-01T20:49:53.430Z,77.22
2019-06-01T20:52:23.386Z,76.75
2019-06-01T20:54:53.110Z,76.60
2019-06-01T20:57:24.017Z,77.20
2019-06-01T20:59:53.565Z,77.75
2019-06-01T21:02:24.152Z,77.89
2019-06-01T21:04:53.526Z,78.34
2019-06-01T21:07:24.179Z,77.85
2019-06-01T21:09:53.721Z,77.45
2019-06-01T21:12:43.569Z,77.13
2019-06-01T21:14:54.828Z,73.75
2019-06-01T21:17:24.498Z,74.48
2019-06-01T21:19:54.204Z,74.79
2019-06-01T21:22:24.909Z,75.18
2019-06-01T21:24:54.538Z,75.51
2019-06-01T21:27:24.904Z,75.30
2019-06-01T21:29:54.874Z,74.82
2019-06-01T21:32:25.653Z,74.22
2019-06-01T21:34:55.187Z,73.83
2019-06-01T21:37:24.921Z,74.23
2019-06-01T21:39:54.321Z,74.11
2019-06-01T21:42:23.751Z,74.50
2019-06-01T21:44:53.378Z,73.91
2019-06-01T21:47:23.862Z,74.12
2019-06-01T21:49:53.716Z,74.23
2019-06-01T21:52:24.243Z,74.80
2019-06-01T21:54:54.234Z,75.01
2019-06-01T21:57:24.622Z,74.86
2019-06-01T21:59:54.350Z,75.08
2019-06-01T22:02:25.039Z,75.77
2019-06-01T22:04:54.728Z,75.86
2019-06-01T22:07:25.324Z,76.04
2019-06-01T22:09:55.072Z,75.59
2019-06-01T22:12:25.762Z,75.75
2019-06-01T22:14:55.615Z,76.21
2019-06-01T22:17:25.877Z,76.63
2019-06-01T22:19:55.416Z,76.98
2019-06-01T22:22:25.834Z,77.61
2019-06-01T22:24:55.541Z,77.72
2019-06-01T22:27:26.262Z,77.51
2019-06-01T22:29:56.094Z,77.47
2019-06-01T22:32:29.400Z,77.02
2019-06-01T22:34:57.132Z,76.71
2019-06-01T22:37:26.568Z,77.15
2019-06-01T22:39:56.056Z,77.85
2019-06-01T22:42:26.394Z,78.05
2019-06-01T22:44:55.883Z,77.95
2019-06-01T22:47:26.642Z,77.81
2019-06-01T22:49:56.554Z,77.11
2019-06-01T22:52:27.050Z,77.12
2019-06-01T22:54:56.878Z,77.51
2019-06-01T22:57:26.695Z,77.70
2019-06-01T22:59:56.685Z,77.81
2019-06-01T23:02:27.764Z,77.87
2019-06-01T23:04:57.752Z,77.87
2019-06-01T23:07:27.485Z,77.85
2019-06-01T23:09:57.048Z,77.66
2019-06-01T23:12:27.622Z,77.67
2019-06-01T23:14:57.364Z,77.92
2019-06-01T23:17:27.976Z,78.32
2019-06-01T23:19:57.634Z,78.70
2019-06-01T23:22:28.168Z,78.84
2019-06-01T23:24:58.025Z,78.88
2019-06-01T23:27:28.308Z,78.86
2019-06-01T23:29:57.800Z,79.09
2019-06-01T23:32:28.510Z,79.10
2019-06-01T23:34:57.954Z,79.40
2019-06-01T23:37:28.795Z,79.12
2019-06-01T23:39:58.420Z,79.49
2019-06-01T23:42:28.794Z,79.05
2019-06-01T23:44:58.180Z,79.33
2019-06-01T23:47:27.719Z,79.59
2019-06-01T23:49:57.206Z,79.81
2019-06-01T23:52:27.508Z,80.16
2019-06-01T23:54:57.132Z,80.17
2019-06-01T23:57:27.741Z,79.75
2019-06-01T23:59:57.564Z,79.80
